createdAt,value
2017-12-13T00:00:21.304Z,1004.74
2017-12-13T00:01:01.861Z,1004.8
2017-12-13T00:01:42.430Z,1004.75
2017-12-13T00:02:23.026Z,1004.78
2017-12-13T00:03:03.607Z,1004.75
2017-12-13T00:03:44.125Z,1004.79
2017-12-13T00:04:24.722Z,1004.78
2017-12-13T00:05:05.250Z,1004.76
2017-12-13T00:05:45.780Z,1004.75
2017-12-13T00:06:26.315Z,1004.81
2017-12-13T00:07:06.861Z,1004.8
2017-12-13T00:07:47.378Z,1004.8
2017-12-13T00:08:27.933Z,1004.79
2017-12-13T00:09:08.523Z,1004.78
2017-12-13T00:09:49.058Z,1004.78
2017-12-13T00:10:29.652Z,1004.76
2017-12-13T00:11:10.226Z,1004.84
2017-12-13T00:11:50.740Z,1004.79
2017-12-13T00:12:31.287Z,1004.77
2017-12-13T00:13:11.876Z,1004.77
2017-12-13T00:13:52.428Z,1004.79
2017-12-13T00:14:32.953Z,1004.78
2017-12-13T00:15:13.489Z,1004.78
2017-12-13T00:15:54.032Z,1004.75
2017-12-13T00:16:34.593Z,1004.75
2017-12-13T00:17:15.136Z,1004.75
2017-12-13T00:17:55.696Z,1004.77
2017-12-13T00:18:36.240Z,1004.75
2017-12-13T00:19:16.770Z,1004.75
2017-12-13T00:19:57.307Z,1004.74
2017-12-13T00:20:37.825Z,1004.75
2017-12-13T00:21:18.396Z,1004.75
2017-12-13T00:21:58.898Z,1004.74
2017-12-13T00:22:39.467Z,1004.74
2017-12-13T00:23:20.006Z,1004.76
2017-12-13T00:24:00.560Z,1004.75
2017-12-13T00:24:41.136Z,1004.74
2017-12-13T00:25:21.640Z,1004.67
2017-12-13T00:26:02.209Z,1004.68
2017-12-13T00:26:42.738Z,1004.69
2017-12-13T00:27:23.297Z,1004.7
2017-12-13T00:28:03.871Z,1004.68
2017-12-13T00:28:44.427Z,1004.71
2017-12-13T00:29:25.010Z,1004.66
2017-12-13T00:30:05.511Z,1004.7
2017-12-13T00:30:46.054Z,1004.74
2017-12-13T00:31:26.581Z,1004.72
2017-12-13T00:32:07.097Z,1004.78
2017-12-13T00:32:47.620Z,1004.81
2017-12-13T00:33:28.156Z,1004.8
2017-12-13T00:34:08.721Z,1004.79
2017-12-13T00:34:49.284Z,1004.77
2017-12-13T00:35:29.823Z,1004.84
2017-12-13T00:36:10.414Z,1004.84
2017-12-13T00:36:50.949Z,1004.81
2017-12-13T00:37:31.545Z,1004.83
2017-12-13T00:38:12.090Z,1004.79
2017-12-13T00:38:52.629Z,1004.75
2017-12-13T00:39:33.135Z,1004.82
2017-12-13T00:40:13.682Z,1004.79
2017-12-13T00:40:54.225Z,1004.82
2017-12-13T00:41:34.789Z,1004.81
2017-12-13T00:42:15.295Z,1004.77
2017-12-13T00:42:56.651Z,1004.8
2017-12-13T00:43:36.402Z,1004.86
2017-12-13T00:44:16.924Z,1004.79
2017-12-13T00:44:57.468Z,1004.86
2017-12-13T00:45:37.984Z,1004.84
2017-12-13T00:46:18.503Z,1004.87
2017-12-13T00:46:59.004Z,1004.92
2017-12-13T00:47:39.550Z,1004.92
2017-12-13T00:48:20.092Z,1004.89
2017-12-13T00:49:00.665Z,1004.86
2017-12-13T00:49:41.207Z,1004.87
2017-12-13T00:50:21.775Z,1004.87
2017-12-13T00:51:02.278Z,1004.95
2017-12-13T00:51:42.801Z,1004.91
2017-12-13T00:52:23.330Z,1004.91
2017-12-13T00:53:03.881Z,1004.9
2017-12-13T00:53:44.425Z,1004.91
2017-12-13T00:54:25.023Z,1004.85
2017-12-13T00:55:05.524Z,1004.84
2017-12-13T00:55:46.055Z,1004.81
2017-12-13T00:56:26.608Z,1004.83
2017-12-13T00:57:07.167Z,1004.86
2017-12-13T00:57:47.695Z,1004.76
2017-12-13T00:58:28.234Z,1004.8
2017-12-13T00:59:08.753Z,1004.78
2017-12-13T00:59:49.294Z,1004.76
2017-12-13T01:00:29.830Z,1004.72
2017-12-13T01:01:10.373Z,1004.68
2017-12-13T01:01:50.913Z,1004.69
2017-12-13T01:02:31.495Z,1004.67
2017-12-13T01:03:12.055Z,1004.67
2017-12-13T01:03:52.662Z,1004.7
2017-12-13T01:04:33.167Z,1004.67
2017-12-13T01:05:13.687Z,1004.67
2017-12-13T01:05:54.189Z,1004.68
2017-12-13T01:06:34.770Z,1004.7
2017-12-13T01:07:15.345Z,1004.7
2017-12-13T01:07:55.842Z,1004.64
2017-12-13T01:08:36.420Z,1004.7
2017-12-13T01:09:16.940Z,1004.61
2017-12-13T01:09:57.463Z,1004.62
2017-12-13T01:10:38.003Z,1004.64
2017-12-13T01:11:18.568Z,1004.63
2017-12-13T01:11:59.064Z,1004.63
2017-12-13T01:12:39.610Z,1004.72
2017-12-13T01:13:20.164Z,1004.67
2017-12-13T01:14:00.746Z,1004.66
2017-12-13T01:14:41.248Z,1004.68
2017-12-13T01:15:21.812Z,1004.71
2017-12-13T01:16:02.310Z,1004.71
2017-12-13T01:16:42.953Z,1004.74
2017-12-13T01:17:23.495Z,1004.69
2017-12-13T01:18:04.073Z,1004.69
2017-12-13T01:18:44.618Z,1004.68
2017-12-13T01:19:25.162Z,1004.67
2017-12-13T01:20:05.744Z,1004.63
2017-12-13T01:20:46.364Z,1004.61
2017-12-13T01:21:26.869Z,1004.59
2017-12-13T01:22:07.415Z,1004.59
2017-12-13T01:22:47.947Z,1004.65
2017-12-13T01:23:28.462Z,1004.59
2017-12-13T01:24:09.011Z,1004.58
2017-12-13T01:24:49.524Z,1004.62
2017-12-13T01:25:30.037Z,1004.59
2017-12-13T01:26:10.571Z,1004.58
2017-12-13T01:26:51.087Z,1004.56
2017-12-13T01:27:31.596Z,1004.52
2017-12-13T01:28:12.151Z,1004.58
2017-12-13T01:28:52.685Z,1004.55
2017-12-13T01:29:33.292Z,1004.59
2017-12-13T01:30:13.829Z,1004.61
2017-12-13T01:30:54.394Z,1004.6
2017-12-13T01:31:34.907Z,1004.59
2017-12-13T01:32:15.459Z,1004.6
2017-12-13T01:32:55.989Z,1004.64
2017-12-13T01:33:36.518Z,1004.62
2017-12-13T01:34:17.071Z,1004.61
2017-12-13T01:34:57.592Z,1004.66
2017-12-13T01:35:38.160Z,1004.66
2017-12-13T01:36:18.741Z,1004.63
2017-12-13T01:36:59.246Z,1004.61
2017-12-13T01:37:39.815Z,1004.69
2017-12-13T01:38:20.337Z,1004.65
2017-12-13T01:39:00.903Z,1004.69
2017-12-13T01:39:41.468Z,1004.65
2017-12-13T01:40:22.037Z,1004.69
2017-12-13T01:41:02.586Z,1004.63
2017-12-13T01:41:43.131Z,1004.65
2017-12-13T01:42:23.644Z,1004.65
2017-12-13T01:43:04.176Z,1004.64
2017-12-13T01:43:44.737Z,1004.65
2017-12-13T01:44:25.300Z,1004.68
2017-12-13T01:45:05.833Z,1004.64
2017-12-13T01:45:46.369Z,1004.68
2017-12-13T01:46:26.932Z,1004.72
2017-12-13T01:47:07.452Z,1004.68
2017-12-13T01:47:48.037Z,1004.74
2017-12-13T01:48:28.532Z,1004.68
2017-12-13T01:49:09.068Z,1004.72
2017-12-13T01:49:49.604Z,1004.72
2017-12-13T01:50:30.159Z,1004.67
2017-12-13T01:51:10.647Z,1004.71
2017-12-13T01:51:51.194Z,1004.64
2017-12-13T01:52:31.728Z,1004.66
2017-12-13T01:53:12.272Z,1004.66
2017-12-13T01:53:52.830Z,1004.68
2017-12-13T01:54:33.379Z,1004.67
2017-12-13T01:55:13.918Z,1004.68
2017-12-13T01:55:54.457Z,1004.67
2017-12-13T01:56:35.054Z,1004.68
2017-12-13T01:57:17.820Z,1004.64
2017-12-13T01:57:58.257Z,1004.72
2017-12-13T01:58:38.751Z,1004.7
2017-12-13T01:59:19.312Z,1004.67
2017-12-13T01:59:59.941Z,1004.7
2017-12-13T02:00:40.464Z,1004.67
2017-12-13T02:01:21.026Z,1004.71
2017-12-13T02:02:01.556Z,1004.7
2017-12-13T02:02:42.121Z,1004.73
2017-12-13T02:03:22.640Z,1004.71
2017-12-13T02:04:03.206Z,1004.71
2017-12-13T02:04:43.770Z,1004.74
2017-12-13T02:05:24.312Z,1004.7
2017-12-13T02:06:04.893Z,1004.69
2017-12-13T02:06:45.484Z,1004.69
2017-12-13T02:07:26.053Z,1004.72
2017-12-13T02:08:06.572Z,1004.62
2017-12-13T02:08:47.127Z,1004.68
2017-12-13T02:09:27.739Z,1004.63
2017-12-13T02:10:08.288Z,1004.65
2017-12-13T02:10:48.808Z,1004.63
2017-12-13T02:11:29.391Z,1004.64
2017-12-13T02:12:09.957Z,1004.61
2017-12-13T02:12:51.176Z,1004.69
2017-12-13T02:13:31.119Z,1004.61
2017-12-13T02:14:11.639Z,1004.65
2017-12-13T02:14:52.260Z,1004.6
2017-12-13T02:15:32.836Z,1004.63
2017-12-13T02:16:13.334Z,1004.62
2017-12-13T02:16:53.880Z,1004.62
2017-12-13T02:17:34.456Z,1004.64
2017-12-13T02:18:14.957Z,1004.63
2017-12-13T02:18:55.538Z,1004.57
2017-12-13T02:19:36.074Z,1004.62
2017-12-13T02:20:16.657Z,1004.63
2017-12-13T02:20:57.185Z,1004.64
2017-12-13T02:21:37.706Z,1004.64
2017-12-13T02:22:18.250Z,1004.6
2017-12-13T02:22:58.801Z,1004.65
2017-12-13T02:23:39.373Z,1004.64
2017-12-13T02:24:19.905Z,1004.62
2017-12-13T02:25:00.527Z,1004.65
2017-12-13T02:25:41.076Z,1004.66
2017-12-13T02:26:21.621Z,1004.65
2017-12-13T02:27:02.177Z,1004.58
2017-12-13T02:27:42.692Z,1004.58
2017-12-13T02:28:23.311Z,1004.57
2017-12-13T02:29:03.830Z,1004.59
2017-12-13T02:29:44.354Z,1004.57
2017-12-13T02:30:24.899Z,1004.6
2017-12-13T02:31:05.410Z,1004.55
2017-12-13T02:31:45.981Z,1004.58
2017-12-13T02:32:26.489Z,1004.58
2017-12-13T02:33:07.047Z,1004.57
2017-12-13T02:33:47.567Z,1004.52
2017-12-13T02:34:28.117Z,1004.55
2017-12-13T02:35:08.672Z,1004.52
2017-12-13T02:35:49.232Z,1004.52
2017-12-13T02:36:29.826Z,1004.52
2017-12-13T02:37:10.406Z,1004.47
2017-12-13T02:37:50.925Z,1004.47
2017-12-13T02:38:31.448Z,1004.45
2017-12-13T02:39:12.015Z,1004.45
2017-12-13T02:39:52.542Z,1004.48
2017-12-13T02:40:33.086Z,1004.45
2017-12-13T02:41:13.677Z,1004.48
2017-12-13T02:41:54.150Z,1004.44
2017-12-13T02:42:34.706Z,1004.43
2017-12-13T02:43:15.284Z,1004.41
2017-12-13T02:43:56.679Z,1004.36
2017-12-13T02:44:36.371Z,1004.37
2017-12-13T02:45:16.905Z,1004.38
2017-12-13T02:45:57.473Z,1004.34
2017-12-13T02:46:38.004Z,1004.37
2017-12-13T02:47:18.576Z,1004.34
2017-12-13T02:48:00.122Z,1004.3
2017-12-13T02:48:40.655Z,1004.33
2017-12-13T02:49:21.159Z,1004.32
2017-12-13T02:50:01.686Z,1004.33
2017-12-13T02:50:42.238Z,1004.33
2017-12-13T02:51:22.752Z,1004.32
2017-12-13T02:52:03.280Z,1004.31
2017-12-13T02:52:43.837Z,1004.3
2017-12-13T02:53:24.376Z,1004.31
2017-12-13T02:54:04.866Z,1004.28
2017-12-13T02:54:45.416Z,1004.28
2017-12-13T02:55:25.953Z,1004.26
2017-12-13T02:56:06.484Z,1004.24
2017-12-13T02:56:47.042Z,1004.26
2017-12-13T02:57:27.586Z,1004.22
2017-12-13T02:58:09.008Z,1004.22
2017-12-13T02:58:49.516Z,1004.22
2017-12-13T02:59:30.131Z,1004.19
2017-12-13T03:00:10.656Z,1004.26
2017-12-13T03:00:51.163Z,1004.2
2017-12-13T03:01:31.764Z,1004.2
2017-12-13T03:02:12.306Z,1004.19
2017-12-13T03:02:52.871Z,1004.17
2017-12-13T03:03:33.406Z,1004.12
2017-12-13T03:04:13.943Z,1004.14
2017-12-13T03:04:54.572Z,1004.13
2017-12-13T03:05:35.121Z,1004.1
2017-12-13T03:06:15.678Z,1004.1
2017-12-13T03:06:56.222Z,1004.11
2017-12-13T03:07:36.737Z,1004.11
2017-12-13T03:08:17.310Z,1004.09
2017-12-13T03:08:57.844Z,1004.13
2017-12-13T03:09:38.377Z,1004.08
2017-12-13T03:10:18.895Z,1004.08
2017-12-13T03:10:59.473Z,1004.06
2017-12-13T03:11:39.995Z,1004.05
2017-12-13T03:12:20.560Z,1004.04
2017-12-13T03:13:01.105Z,1004
2017-12-13T03:13:41.632Z,1003.98
2017-12-13T03:14:22.169Z,1004
2017-12-13T03:15:02.709Z,1004.04
2017-12-13T03:15:43.317Z,1004.04
2017-12-13T03:16:23.851Z,1003.98
2017-12-13T03:17:04.404Z,1003.94
2017-12-13T03:17:44.958Z,1003.95
2017-12-13T03:18:25.491Z,1003.92
2017-12-13T03:19:06.056Z,1003.88
2017-12-13T03:19:46.585Z,1003.85
2017-12-13T03:20:27.145Z,1003.91
2017-12-13T03:21:07.734Z,1003.93
2017-12-13T03:21:48.265Z,1003.97
2017-12-13T03:22:28.845Z,1003.83
2017-12-13T03:23:09.384Z,1003.92
2017-12-13T03:23:49.934Z,1003.9
2017-12-13T03:24:30.448Z,1003.91
2017-12-13T03:25:10.976Z,1003.88
2017-12-13T03:25:51.541Z,1003.92
2017-12-13T03:26:32.115Z,1003.91
2017-12-13T03:27:13.053Z,1003.82
2017-12-13T03:27:53.588Z,1003.82
2017-12-13T03:28:34.150Z,1003.86
2017-12-13T03:29:14.696Z,1003.82
2017-12-13T03:29:55.183Z,1003.75
2017-12-13T03:30:35.816Z,1003.79
2017-12-13T03:31:16.377Z,1003.79
2017-12-13T03:31:56.931Z,1003.74
2017-12-13T03:32:37.479Z,1003.71
2017-12-13T03:33:18.014Z,1003.72
2017-12-13T03:33:58.568Z,1003.8
2017-12-13T03:34:39.128Z,1003.8
2017-12-13T03:35:19.644Z,1003.78
2017-12-13T03:36:00.692Z,1003.78
2017-12-13T03:36:40.662Z,1003.72
2017-12-13T03:37:21.200Z,1003.76
2017-12-13T03:38:01.709Z,1003.7
2017-12-13T03:38:42.251Z,1003.68
2017-12-13T03:39:22.832Z,1003.65
2017-12-13T03:40:03.351Z,1003.62
2017-12-13T03:40:43.906Z,1003.62
2017-12-13T03:41:24.413Z,1003.61
2017-12-13T03:42:04.943Z,1003.64
2017-12-13T03:42:45.458Z,1003.68
2017-12-13T03:43:25.983Z,1003.69
2017-12-13T03:44:06.524Z,1003.68
2017-12-13T03:44:47.097Z,1003.68
2017-12-13T03:45:27.618Z,1003.69
2017-12-13T03:46:08.178Z,1003.67
2017-12-13T03:46:48.715Z,1003.67
2017-12-13T03:47:29.252Z,1003.66
2017-12-13T03:48:09.807Z,1003.67
2017-12-13T03:48:50.365Z,1003.6
2017-12-13T03:49:30.928Z,1003.62
2017-12-13T03:50:11.456Z,1003.58
2017-12-13T03:50:51.998Z,1003.62
2017-12-13T03:51:32.597Z,1003.63
2017-12-13T03:52:13.164Z,1003.59
2017-12-13T03:52:53.708Z,1003.55
2017-12-13T03:53:34.200Z,1003.57
2017-12-13T03:54:14.709Z,1003.56
2017-12-13T03:54:55.237Z,1003.55
2017-12-13T03:55:35.756Z,1003.61
2017-12-13T03:56:16.299Z,1003.56
2017-12-13T03:56:56.861Z,1003.58
2017-12-13T03:57:37.453Z,1003.54
2017-12-13T03:58:18.004Z,1003.57
2017-12-13T03:58:58.599Z,1003.58
2017-12-13T03:59:39.149Z,1003.54
2017-12-13T04:00:19.710Z,1003.55
2017-12-13T04:01:00.270Z,1003.5
2017-12-13T04:01:40.836Z,1003.48
2017-12-13T04:02:21.425Z,1003.49
2017-12-13T04:03:01.984Z,1003.43
2017-12-13T04:03:42.526Z,1003.42
2017-12-13T04:04:23.049Z,1003.45
2017-12-13T04:05:03.593Z,1003.42
2017-12-13T04:05:44.165Z,1003.37
2017-12-13T04:06:24.713Z,1003.42
2017-12-13T04:07:05.288Z,1003.43
2017-12-13T04:07:45.833Z,1003.44
2017-12-13T04:08:26.380Z,1003.47
2017-12-13T04:09:06.909Z,1003.43
2017-12-13T04:09:47.466Z,1003.46
2017-12-13T04:10:28.008Z,1003.48
2017-12-13T04:11:08.538Z,1003.45
2017-12-13T04:11:49.107Z,1003.48
2017-12-13T04:12:29.714Z,1003.44
2017-12-13T04:13:10.255Z,1003.41
2017-12-13T04:13:50.825Z,1003.45
2017-12-13T04:14:31.363Z,1003.42
2017-12-13T04:15:11.926Z,1003.34
2017-12-13T04:15:52.482Z,1003.38
2017-12-13T04:16:32.982Z,1003.41
2017-12-13T04:17:13.512Z,1003.32
2017-12-13T04:17:54.074Z,1003.32
2017-12-13T04:18:34.601Z,1003.28
2017-12-13T04:19:15.171Z,1003.27
2017-12-13T04:19:55.749Z,1003.25
2017-12-13T04:20:36.356Z,1003.22
2017-12-13T04:21:16.920Z,1003.23
2017-12-13T04:21:57.468Z,1003.2
2017-12-13T04:22:38.007Z,1003.21
2017-12-13T04:23:18.559Z,1003.24
2017-12-13T04:23:59.096Z,1003.21
2017-12-13T04:24:39.642Z,1003.23
2017-12-13T04:25:20.136Z,1003.15
2017-12-13T04:26:00.691Z,1003.21
2017-12-13T04:26:41.299Z,1003.12
2017-12-13T04:27:22.703Z,1003.15
2017-12-13T04:28:02.355Z,1003.16
2017-12-13T04:28:42.925Z,1003.15
2017-12-13T04:29:23.446Z,1003.14
2017-12-13T04:30:03.994Z,1003.12
2017-12-13T04:30:44.551Z,1003.13
2017-12-13T04:31:25.082Z,1003.09
2017-12-13T04:32:05.672Z,1003.14
2017-12-13T04:32:46.186Z,1003.15
2017-12-13T04:33:26.752Z,1003.14
2017-12-13T04:34:07.254Z,1003.13
2017-12-13T04:34:47.805Z,1003.13
2017-12-13T04:35:28.373Z,1003.12
2017-12-13T04:36:08.879Z,1003.09
2017-12-13T04:36:49.434Z,1003.09
2017-12-13T04:37:29.972Z,1003.09
2017-12-13T04:38:10.496Z,1003.11
2017-12-13T04:38:51.048Z,1003.11
2017-12-13T04:39:31.655Z,1003.12
2017-12-13T04:40:12.144Z,1003.12
2017-12-13T04:40:52.697Z,1003.11
2017-12-13T04:41:33.247Z,1003.13
2017-12-13T04:42:13.769Z,1003.16
2017-12-13T04:42:54.347Z,1003.11
2017-12-13T04:43:34.905Z,1003.16
2017-12-13T04:44:15.454Z,1003.14
2017-12-13T04:44:56.010Z,1003.12
2017-12-13T04:45:36.559Z,1003.13
2017-12-13T04:46:17.107Z,1003.15
2017-12-13T04:46:57.663Z,1003.16
2017-12-13T04:47:38.229Z,1003.11
2017-12-13T04:48:18.741Z,1003.09
2017-12-13T04:48:59.296Z,1003.12
2017-12-13T04:49:39.848Z,1003.04
2017-12-13T04:50:20.360Z,1003.1
2017-12-13T04:51:01.818Z,1003.04
2017-12-13T04:51:42.365Z,1003.04
2017-12-13T04:52:22.935Z,1003.09
2017-12-13T04:53:03.454Z,1003.07
2017-12-13T04:53:44.007Z,1003.04
2017-12-13T04:54:24.531Z,1003.03
2017-12-13T04:55:05.067Z,1003.13
2017-12-13T04:55:45.614Z,1003.15
2017-12-13T04:56:26.118Z,1003.14
2017-12-13T04:57:06.646Z,1003.16
2017-12-13T04:57:47.211Z,1003.16
2017-12-13T04:58:27.759Z,1003.17
2017-12-13T04:59:08.265Z,1003.21
2017-12-13T04:59:48.839Z,1003.18
2017-12-13T05:00:29.347Z,1003.2
2017-12-13T05:01:09.889Z,1003.2
2017-12-13T05:01:50.438Z,1003.22
2017-12-13T05:02:31.089Z,1003.22
2017-12-13T05:03:11.689Z,1003.21
2017-12-13T05:03:52.228Z,1003.2
2017-12-13T05:04:32.801Z,1003.21
2017-12-13T05:05:13.392Z,1003.26
2017-12-13T05:05:53.931Z,1003.21
2017-12-13T05:06:34.461Z,1003.17
2017-12-13T05:07:14.988Z,1003.17
2017-12-13T05:07:55.503Z,1003.19
2017-12-13T05:08:36.040Z,1003.2
2017-12-13T05:09:16.542Z,1003.19
2017-12-13T05:09:57.134Z,1003.2
2017-12-13T05:10:37.733Z,1003.23
2017-12-13T05:11:18.290Z,1003.21
2017-12-13T05:11:58.826Z,1003.19
2017-12-13T05:12:39.389Z,1003.22
2017-12-13T05:13:19.946Z,1003.18
2017-12-13T05:14:00.517Z,1003.17
2017-12-13T05:14:41.093Z,1003.18
2017-12-13T05:15:21.754Z,1003.18
2017-12-13T05:16:02.200Z,1003.17
2017-12-13T05:16:42.746Z,1003.17
2017-12-13T05:17:23.394Z,1003.15
2017-12-13T05:18:03.897Z,1003.09
2017-12-13T05:18:44.440Z,1003.1
2017-12-13T05:19:25.023Z,1003.05
2017-12-13T05:20:05.534Z,1003.02
2017-12-13T05:20:46.067Z,1003.03
2017-12-13T05:21:26.593Z,1003.04
2017-12-13T05:22:07.151Z,1003.03
2017-12-13T05:22:47.695Z,1003.07
2017-12-13T05:23:28.304Z,1003.05
2017-12-13T05:24:08.824Z,1003.09
2017-12-13T05:24:49.400Z,1003.07
2017-12-13T05:25:29.950Z,1003.13
2017-12-13T05:26:10.498Z,1003.13
2017-12-13T05:26:51.059Z,1003.05
2017-12-13T05:27:31.613Z,1003.04
2017-12-13T05:28:12.214Z,1003.09
2017-12-13T05:28:52.695Z,1003.1
2017-12-13T05:29:33.261Z,1003.12
2017-12-13T05:30:13.819Z,1003.13
2017-12-13T05:30:54.428Z,1003.09
2017-12-13T05:31:34.948Z,1003.08
2017-12-13T05:32:15.535Z,1003.14
2017-12-13T05:32:56.063Z,1003.09
2017-12-13T05:33:36.613Z,1003.15
2017-12-13T05:34:17.173Z,1003.09
2017-12-13T05:34:57.722Z,1003.1
2017-12-13T05:35:38.321Z,1003.09
2017-12-13T05:36:18.875Z,1003.09
2017-12-13T05:36:59.458Z,1003.06
2017-12-13T05:37:40.029Z,1003.08
2017-12-13T05:38:20.626Z,1003.08
2017-12-13T05:39:01.173Z,1003.07
2017-12-13T05:39:41.744Z,1003.06
2017-12-13T05:40:22.315Z,1003.08
2017-12-13T05:41:02.892Z,1003.08
2017-12-13T05:41:43.445Z,1003
2017-12-13T05:42:24.001Z,1003
2017-12-13T05:43:04.653Z,1002.98
2017-12-13T05:43:45.226Z,1002.95
2017-12-13T05:44:25.752Z,1003.01
2017-12-13T05:45:06.302Z,1003.01
2017-12-13T05:45:46.864Z,1002.95
2017-12-13T05:46:27.457Z,1002.94
2017-12-13T05:47:08.004Z,1002.94
2017-12-13T05:47:48.613Z,1002.93
2017-12-13T05:48:29.108Z,1002.93
2017-12-13T05:49:09.643Z,1002.95
2017-12-13T05:49:50.300Z,1002.93
2017-12-13T05:50:30.824Z,1002.9
2017-12-13T05:51:11.347Z,1002.89
2017-12-13T05:51:51.959Z,1002.92
2017-12-13T05:52:33.341Z,1002.93
2017-12-13T05:53:13.865Z,1002.9
2017-12-13T05:53:54.442Z,1002.91
2017-12-13T05:54:34.961Z,1002.86
2017-12-13T05:55:16.110Z,1002.89
2017-12-13T05:55:56.619Z,1002.88
2017-12-13T05:56:37.162Z,1002.81
2017-12-13T05:57:17.710Z,1002.87
2017-12-13T05:57:58.283Z,1002.84
2017-12-13T05:58:38.859Z,1002.86
2017-12-13T05:59:19.427Z,1002.84
2017-12-13T05:59:59.989Z,1002.88
2017-12-13T06:00:40.589Z,1002.9
2017-12-13T06:01:21.103Z,1002.87
2017-12-13T06:02:01.633Z,1002.89
2017-12-13T06:02:42.236Z,1002.9
2017-12-13T06:03:22.806Z,1002.88
2017-12-13T06:04:03.362Z,1002.86
2017-12-13T06:04:44.768Z,1002.85
2017-12-13T06:05:25.350Z,1002.86
2017-12-13T06:06:05.970Z,1002.81
2017-12-13T06:06:46.484Z,1002.85
2017-12-13T06:07:27.069Z,1002.82
2017-12-13T06:08:07.860Z,1002.84
2017-12-13T06:08:48.485Z,1002.84
2017-12-13T06:09:29.003Z,1002.81
2017-12-13T06:10:09.569Z,1002.84
2017-12-13T06:10:50.189Z,1002.81
2017-12-13T06:11:30.696Z,1002.78
2017-12-13T06:12:11.241Z,1002.79
2017-12-13T06:12:51.838Z,1002.76
2017-12-13T06:13:32.517Z,1002.77
2017-12-13T06:14:13.064Z,1002.78
2017-12-13T06:14:53.644Z,1002.8
2017-12-13T06:15:34.160Z,1002.8
2017-12-13T06:16:14.709Z,1002.81
2017-12-13T06:16:55.236Z,1002.81
2017-12-13T06:17:35.808Z,1002.82
2017-12-13T06:18:16.366Z,1002.86
2017-12-13T06:18:57.574Z,1002.76
2017-12-13T06:19:38.202Z,1002.79
2017-12-13T06:20:18.762Z,1002.74
2017-12-13T06:20:59.310Z,1002.81
2017-12-13T06:21:39.837Z,1002.77
2017-12-13T06:22:20.429Z,1002.78
2017-12-13T06:23:00.996Z,1002.77
2017-12-13T06:23:41.596Z,1002.78
2017-12-13T06:24:22.164Z,1002.77
2017-12-13T06:25:02.653Z,1002.78
2017-12-13T06:25:43.281Z,1002.76
2017-12-13T06:26:23.922Z,1002.78
2017-12-13T06:27:04.522Z,1002.77
2017-12-13T06:27:47.726Z,1002.81
2017-12-13T06:28:28.305Z,1002.81
2017-12-13T06:29:08.885Z,1002.76
2017-12-13T06:29:49.479Z,1002.7
2017-12-13T06:30:30.037Z,1002.77
2017-12-13T06:31:11.514Z,1002.74
2017-12-13T06:31:52.061Z,1002.73
2017-12-13T06:32:32.627Z,1002.78
2017-12-13T06:33:13.223Z,1002.75
2017-12-13T06:33:53.773Z,1002.74
2017-12-13T06:34:34.743Z,1002.75
2017-12-13T06:35:15.325Z,1002.75
2017-12-13T06:35:55.922Z,1002.65
2017-12-13T06:36:36.439Z,1002.68
2017-12-13T06:37:17.734Z,1002.72
2017-12-13T06:37:57.729Z,1002.68
2017-12-13T06:38:38.417Z,1002.64
2017-12-13T06:39:18.853Z,1002.7
2017-12-13T06:39:59.458Z,1002.68
2017-12-13T06:40:40.929Z,1002.69
2017-12-13T06:41:21.531Z,1002.67
2017-12-13T06:42:02.141Z,1002.63
2017-12-13T06:42:42.693Z,1002.69
2017-12-13T06:43:23.593Z,1002.62
2017-12-13T06:44:04.294Z,1002.64
2017-12-13T06:44:44.829Z,1002.64
2017-12-13T06:45:25.390Z,1002.65
2017-12-13T06:46:05.913Z,1002.65
2017-12-13T06:46:46.512Z,1002.65
2017-12-13T06:47:27.089Z,1002.72
2017-12-13T06:48:07.753Z,1002.69
2017-12-13T06:48:48.288Z,1002.67
2017-12-13T06:49:28.863Z,1002.74
2017-12-13T06:50:09.469Z,1002.72
2017-12-13T06:50:50.023Z,1002.7
2017-12-13T06:51:30.638Z,1002.72
2017-12-13T06:52:11.150Z,1002.7
2017-12-13T06:52:51.770Z,1002.69
2017-12-13T06:53:32.372Z,1002.66
2017-12-13T06:54:12.935Z,1002.64
2017-12-13T06:54:53.482Z,1002.65
2017-12-13T06:55:34.016Z,1002.66
2017-12-13T06:56:14.571Z,1002.66
2017-12-13T06:56:55.123Z,1002.68
2017-12-13T06:57:35.715Z,1002.68
2017-12-13T06:58:16.284Z,1002.66
2017-12-13T06:58:56.778Z,1002.64
2017-12-13T06:59:37.394Z,1002.63
2017-12-13T07:00:17.952Z,1002.6
2017-12-13T07:00:58.524Z,1002.62
2017-12-13T07:01:39.109Z,1002.61
2017-12-13T07:02:19.651Z,1002.61
2017-12-13T07:03:00.232Z,1002.59
2017-12-13T07:03:40.827Z,1002.6
2017-12-13T07:04:21.378Z,1002.61
2017-12-13T07:05:01.920Z,1002.53
2017-12-13T07:05:42.590Z,1002.58
2017-12-13T07:06:23.239Z,1002.49
2017-12-13T07:07:03.792Z,1002.54
2017-12-13T07:07:44.315Z,1002.56
2017-12-13T07:08:24.877Z,1002.54
2017-12-13T07:09:05.465Z,1002.5
2017-12-13T07:09:45.993Z,1002.48
2017-12-13T07:10:26.569Z,1002.53
2017-12-13T07:11:07.787Z,1002.44
2017-12-13T07:11:48.368Z,1002.41
2017-12-13T07:12:28.951Z,1002.39
2017-12-13T07:13:09.579Z,1002.39
2017-12-13T07:13:50.164Z,1002.34
2017-12-13T07:14:30.826Z,1002.36
2017-12-13T07:15:11.431Z,1002.39
2017-12-13T07:15:52.065Z,1002.33
2017-12-13T07:16:32.634Z,1002.36
2017-12-13T07:17:13.214Z,1002.31
2017-12-13T07:17:53.753Z,1002.34
2017-12-13T07:18:35.351Z,1002.32
2017-12-13T07:19:15.893Z,1002.31
2017-12-13T07:19:56.434Z,1002.31
2017-12-13T07:20:37.084Z,1002.29
2017-12-13T07:21:17.661Z,1002.29
2017-12-13T07:21:58.213Z,1002.3
2017-12-13T07:22:38.712Z,1002.32
2017-12-13T07:23:19.309Z,1002.27
2017-12-13T07:23:59.877Z,1002.26
2017-12-13T07:24:40.622Z,1002.24
2017-12-13T07:25:21.195Z,1002.24
2017-12-13T07:26:01.710Z,1002.23
2017-12-13T07:26:42.256Z,1002.25
2017-12-13T07:27:22.892Z,1002.32
2017-12-13T07:28:03.448Z,1002.29
2017-12-13T07:28:43.998Z,1002.26
2017-12-13T07:29:24.566Z,1002.24
2017-12-13T07:30:05.156Z,1002.24
2017-12-13T07:30:45.662Z,1002.23
2017-12-13T07:31:26.224Z,1002.22
2017-12-13T07:32:06.865Z,1002.18
2017-12-13T07:32:47.490Z,1002.17
2017-12-13T07:33:27.983Z,1002.13
2017-12-13T07:34:08.625Z,1002.16
2017-12-13T07:34:49.165Z,1002.16
2017-12-13T07:35:29.733Z,1002.14
2017-12-13T07:36:10.302Z,1002.2
2017-12-13T07:36:50.901Z,1002.15
2017-12-13T07:37:31.456Z,1002.18
2017-12-13T07:38:12.008Z,1002.2
2017-12-13T07:38:52.659Z,1002.14
2017-12-13T07:39:33.212Z,1002.15
2017-12-13T07:40:13.830Z,1002.21
2017-12-13T07:40:54.420Z,1002.12
2017-12-13T07:41:34.998Z,1002.09
2017-12-13T07:42:15.535Z,1002.04
2017-12-13T07:42:56.080Z,1002.06
2017-12-13T07:43:36.711Z,1002.09
2017-12-13T07:44:17.295Z,1002.1
2017-12-13T07:44:57.978Z,1002.04
2017-12-13T07:45:38.561Z,1002.05
2017-12-13T07:46:19.121Z,1002.03
2017-12-13T07:46:59.696Z,1002.05
2017-12-13T07:47:40.261Z,1002.06
2017-12-13T07:48:20.834Z,1001.99
2017-12-13T07:49:01.422Z,1002.04
2017-12-13T07:49:41.958Z,1002.04
2017-12-13T07:50:22.518Z,1002.03
2017-12-13T07:51:03.104Z,1002.1
2017-12-13T07:51:43.682Z,1002.07
2017-12-13T07:52:24.261Z,1002.04
2017-12-13T07:53:04.749Z,1002.04
2017-12-13T07:53:45.290Z,1002.05
2017-12-13T07:54:25.952Z,1002.05
2017-12-13T07:55:06.600Z,1002.01
2017-12-13T07:55:47.226Z,1002.03
2017-12-13T07:56:27.808Z,1002.03
2017-12-13T07:57:08.351Z,1001.98
2017-12-13T07:57:48.977Z,1001.99
2017-12-13T07:58:29.560Z,1001.94
2017-12-13T07:59:10.114Z,1001.92
2017-12-13T07:59:50.709Z,1001.89
2017-12-13T08:00:31.213Z,1001.91
2017-12-13T08:01:11.784Z,1001.93
2017-12-13T08:01:52.305Z,1001.84
2017-12-13T08:02:32.837Z,1001.82
2017-12-13T08:03:13.402Z,1001.84
2017-12-13T08:03:53.913Z,1001.77
2017-12-13T08:04:34.427Z,1001.8
2017-12-13T08:05:15.023Z,1001.75
2017-12-13T08:05:55.622Z,1001.78
2017-12-13T08:06:36.161Z,1001.71
2017-12-13T08:07:16.885Z,1001.72
2017-12-13T08:07:57.441Z,1001.81
2017-12-13T08:08:37.949Z,1001.73
2017-12-13T08:09:18.556Z,1001.73
2017-12-13T08:09:59.060Z,1001.74
2017-12-13T08:10:39.653Z,1001.72
2017-12-13T08:11:20.256Z,1001.71
2017-12-13T08:12:00.765Z,1001.72
2017-12-13T08:12:41.409Z,1001.69